Time;durP1;ratioP1;P1;durP2;ratioP2;P2;SDS_P1;SDS_P2;PMS_P1;PMS_P2;Temp;Humidity;BMP_temperature;BMP_pressure;BME280_temperature;BME280_humidity;BME280_pressure;Samples;Min_cycle;Max_cycle;Signal;HPM_P1;HPM_P2
2022/04/04 00:00:06;;;;;;;5.93;2.30;;;3.40;99.90;;;;;;5030784;28;20255;-84
2022/04/04 00:02:33;;;;;;;4.20;2.97;;;3.60;99.90;;;;;;5040014;28;20262;-87
2022/04/04 00:05:01;;;;;;;3.73;2.80;;;3.50;99.90;;;;;;5024682;28;20204;-86
2022/04/04 00:07:28;;;;;;;4.63;3.17;;;3.40;99.90;;;;;;5043510;28;20191;-85
2022/04/04 00:09:55;;;;;;;3.00;2.27;;;3.30;99.90;;;;;;5026118;28;20263;-84
2022/04/04 00:12:22;;;;;;;4.23;2.93;;;3.20;99.90;;;;;;5023590;28;20644;-86
2022/04/04 00:14:49;;;;;;;4.97;3.13;;;3.00;99.90;;;;;;5018510;28;20324;-84
2022/04/04 00:17:16;;;;;;;3.13;2.57;;;3.00;99.90;;;;;;5026568;28;20223;-84
2022/04/04 00:19:43;;;;;;;3.20;2.40;;;2.90;99.90;;;;;;5025293;28;20225;-87
2022/04/04 00:22:09;;;;;;;4.53;2.93;;;2.90;99.90;;;;;;5035048;28;20197;-85
2022/04/04 00:24:36;;;;;;;4.90;3.00;;;3.00;99.90;;;;;;5030216;28;20208;-87
2022/04/04 00:27:03;;;;;;;6.47;3.13;;;3.00;99.90;;;;;;5021300;28;20548;-87
2022/04/04 00:29:30;;;;;;;3.47;2.97;;;3.10;99.90;;;;;;5012089;28;20234;-87
2022/04/04 00:31:57;;;;;;;4.73;3.00;;;3.10;99.90;;;;;;5014947;28;20200;-88
2022/04/04 00:34:24;;;;;;;3.77;2.67;;;3.00;99.90;;;;;;5012357;28;20366;-88
2022/04/04 00:36:51;;;;;;;4.63;3.40;;;2.90;99.90;;;;;;5013038;28;20220;-87
2022/04/04 00:39:19;;;;;;;4.53;2.90;;;3.00;99.90;;;;;;5008058;28;20208;-88
2022/04/04 00:41:47;;;;;;;6.93;3.83;;;3.00;99.90;;;;;;5029122;28;20219;-88
2022/04/04 00:44:15;;;;;;;7.90;3.47;;;3.00;99.90;;;;;;5006217;28;20206;-87
2022/04/04 00:46:42;;;;;;;4.50;3.50;;;3.00;99.90;;;;;;5009353;28;20239;-89
2022/04/04 00:49:11;;;;;;;4.83;3.43;;;2.90;99.90;;;;;;5007481;28;20216;-87
2022/04/04 00:51:38;;;;;;;4.83;3.40;;;2.90;99.90;;;;;;5013106;28;20272;-87
2022/04/04 00:54:05;;;;;;;4.83;3.20;;;2.90;99.90;;;;;;4996514;28;20557;-88
2022/04/04 00:56:33;;;;;;;7.17;4.03;;;3.00;99.90;;;;;;5013362;28;20236;-88
2022/04/04 00:59:01;;;;;;;6.20;3.60;;;2.90;99.90;;;;;;5011329;28;20588;-88
2022/04/04 01:01:28;;;;;;;5.67;3.53;;;3.10;99.90;;;;;;5026990;28;20281;-88
2022/04/04 01:03:55;;;;;;;6.90;3.70;;;2.90;99.90;;;;;;5013649;28;20343;-88
2022/04/04 01:06:23;;;;;;;5.93;3.43;;;2.90;99.90;;;;;;5010299;28;20591;-89
2022/04/04 01:08:50;;;;;;;6.27;3.33;;;2.90;99.90;;;;;;5010270;28;20240;-86
2022/04/04 01:11:17;;;;;;;5.00;3.70;;;3.00;99.90;;;;;;5010338;28;20535;-87
2022/04/04 01:13:49;;;;;;;5.07;3.97;;;2.90;99.90;;;;;;5010527;28;20220;-86
2022/04/04 01:16:18;;;;;;;4.47;3.40;;;2.90;99.90;;;;;;5029251;28;20246;-87
2022/04/04 01:18:45;;;;;;;9.37;4.27;;;3.00;99.90;;;;;;5012439;28;20567;-87
2022/04/04 01:21:17;;;;;;;4.73;3.97;;;2.90;99.90;;;;;;5010040;28;20240;-87
2022/04/04 01:23:44;;;;;;;5.80;4.30;;;3.00;99.90;;;;;;5024478;28;20327;-86
2022/04/04 01:26:13;;;;;;;8.30;4.93;;;2.90;99.90;;;;;;5010830;28;20231;-86
2022/04/04 01:28:40;;;;;;;7.47;4.17;;;2.90;99.90;;;;;;5011509;28;20245;-86
2022/04/04 01:31:07;;;;;;;9.47;5.00;;;2.90;99.90;;;;;;5026165;28;22149;-86
2022/04/04 01:33:34;;;;;;;4.70;4.17;;;2.90;99.90;;;;;;5012512;28;20196;-86
2022/04/04 01:36:01;;;;;;;6.13;4.80;;;2.90;99.90;;;;;;5011773;28;20209;-86
2022/04/04 01:38:28;;;;;;;5.07;4.20;;;2.90;99.90;;;;;;5011741;28;20227;-87
2022/04/04 01:40:55;;;;;;;7.70;5.40;;;2.90;99.90;;;;;;5011322;28;20228;-87
2022/04/04 01:43:22;;;;;;;7.37;5.00;;;2.80;99.90;;;;;;5016997;28;20251;-86
2022/04/04 01:48:36;;;;;;;5.90;4.83;;;2.80;99.90;;;;;;5027095;28;20635;-87
2022/04/04 01:51:04;;;;;;;6.73;4.93;;;2.90;99.90;;;;;;5008405;28;20290;-86
2022/04/04 01:53:32;;;;;;;5.57;4.40;;;2.90;99.90;;;;;;5031601;28;20216;-86
2022/04/04 01:56:03;;;;;;;6.60;5.33;;;3.00;99.90;;;;;;5013008;28;20277;-86
2022/04/04 01:58:31;;;;;;;9.30;5.47;;;2.90;99.90;;;;;;5026894;28;22082;-86
2022/04/04 02:01:01;;;;;;;7.43;4.80;;;2.90;99.90;;;;;;5008451;28;20668;-86
2022/04/04 02:03:29;;;;;;;6.20;4.40;;;2.90;99.90;;;;;;5007155;28;20531;-86
2022/04/04 02:05:56;;;;;;;7.53;4.73;;;2.90;99.90;;;;;;5009677;28;20640;-86
2022/04/04 02:08:23;;;;;;;10.40;5.23;;;2.90;99.90;;;;;;5016060;28;20921;-88
2022/04/04 02:10:50;;;;;;;7.37;4.60;;;2.90;99.90;;;;;;5009696;28;20220;-86
2022/04/04 02:13:17;;;;;;;8.30;4.93;;;2.90;99.90;;;;;;5012532;28;20604;-85
2022/04/04 02:15:44;;;;;;;9.17;5.00;;;3.00;99.90;;;;;;5011405;28;20264;-85
2022/04/04 02:18:11;;;;;;;9.37;4.73;;;3.00;99.90;;;;;;5010480;28;20220;-87
2022/04/04 02:20:38;;;;;;;7.43;4.93;;;3.00;99.90;;;;;;5009830;28;20266;-86
2022/04/04 02:23:05;;;;;;;5.83;4.23;;;3.00;99.90;;;;;;5008333;28;20204;-86
2022/04/04 02:25:32;;;;;;;6.90;4.60;;;2.90;99.90;;;;;;5013340;28;20307;-85
2022/04/04 02:27:59;;;;;;;9.10;5.00;;;2.90;99.90;;;;;;4996302;28;20561;-87
2022/04/04 02:30:26;;;;;;;9.27;5.10;;;2.90;99.90;;;;;;5009974;28;20208;-85
2022/04/04 02:32:52;;;;;;;7.33;4.57;;;2.90;99.90;;;;;;5026108;28;20580;-85
2022/04/04 02:35:19;;;;;;;6.67;5.00;;;2.90;99.90;;;;;;5028038;28;20239;-85
2022/04/04 02:37:47;;;;;;;6.30;4.77;;;2.90;99.90;;;;;;5004780;28;20319;-86
2022/04/04 02:40:14;;;;;;;7.93;4.87;;;2.90;99.90;;;;;;5010189;28;20217;-86
2022/04/04 02:42:41;;;;;;;7.03;4.33;;;2.80;99.90;;;;;;5008311;28;20221;-86
2022/04/04 02:45:08;;;;;;;7.77;4.20;;;2.80;99.90;;;;;;5022657;28;20272;-86
2022/04/04 02:47:35;;;;;;;6.87;5.00;;;2.90;99.90;;;;;;5011248;28;20274;-86
2022/04/04 02:50:03;;;;;;;13.27;5.50;;;2.80;99.90;;;;;;5012689;28;20274;-86
2022/04/04 02:52:31;;;;;;;10.63;4.73;;;2.80;99.90;;;;;;5010514;28;20221;-87
2022/04/04 02:54:58;;;;;;;6.93;5.20;;;2.80;99.90;;;;;;5019436;28;20627;-89
2022/04/04 02:57:25;;;;;;;7.43;4.43;;;2.90;99.90;;;;;;5011084;28;20216;-86
2022/04/04 02:59:51;;;;;;;7.30;4.93;;;2.90;99.90;;;;;;5024520;28;20327;-87
2022/04/04 03:02:18;;;;;;;8.70;5.00;;;2.90;99.90;;;;;;5008552;28;20259;-86
2022/04/04 03:04:45;;;;;;;7.23;4.83;;;2.90;99.90;;;;;;5013245;28;20192;-87
2022/04/04 03:07:12;;;;;;;5.83;4.77;;;2.90;99.90;;;;;;5010086;28;20238;-86
2022/04/04 03:09:39;;;;;;;8.67;5.07;;;2.90;99.90;;;;;;5015081;28;20208;-87
2022/04/04 03:12:07;;;;;;;9.53;4.70;;;3.00;99.90;;;;;;5008902;28;20209;-87
2022/04/04 03:14:34;;;;;;;6.30;4.63;;;3.00;99.90;;;;;;5007680;28;20209;-87
2022/04/04 03:17:01;;;;;;;7.23;4.23;;;3.00;99.90;;;;;;5007813;28;20320;-87
2022/04/04 03:19:28;;;;;;;6.87;4.37;;;3.00;99.90;;;;;;5003744;28;20224;-87
2022/04/04 03:21:56;;;;;;;5.60;4.53;;;3.10;99.90;;;;;;5009022;28;20291;-88
2022/04/04 03:24:23;;;;;;;6.07;4.70;;;3.10;99.90;;;;;;5008698;28;20193;-87
2022/04/04 03:26:50;;;;;;;6.40;4.63;;;3.10;99.90;;;;;;5012014;28;20251;-87
2022/04/04 03:29:17;;;;;;;6.30;4.47;;;3.10;99.90;;;;;;5008273;28;20244;-86
2022/04/04 03:31:44;;;;;;;8.67;4.77;;;3.10;99.90;;;;;;5004036;28;20353;-86
2022/04/04 03:34:12;;;;;;;6.53;4.17;;;3.20;99.90;;;;;;5009057;28;20208;-85
2022/04/04 03:36:39;;;;;;;6.10;4.20;;;3.20;99.90;;;;;;5026877;28;20238;-86
2022/04/04 03:39:06;;;;;;;8.33;4.30;;;3.20;99.90;;;;;;5008426;28;20215;-86
2022/04/04 03:41:33;;;;;;;7.80;4.20;;;3.20;99.90;;;;;;5008923;28;20615;-86
2022/04/04 03:44:01;;;;;;;8.50;5.17;;;3.20;99.90;;;;;;5009915;28;20718;-86
2022/04/04 03:46:28;;;;;;;5.87;4.27;;;3.30;99.90;;;;;;5005488;28;20277;-87
2022/04/04 03:48:55;;;;;;;7.63;4.87;;;3.30;99.90;;;;;;5009000;28;20201;-86
2022/04/04 03:51:21;;;;;;;6.67;4.03;;;3.30;99.90;;;;;;5006858;28;21811;-85
2022/04/04 03:53:48;;;;;;;6.87;4.50;;;3.40;99.90;;;;;;5006774;28;20288;-86
2022/04/04 03:56:15;;;;;;;5.83;3.87;;;3.30;99.90;;;;;;5006710;28;20224;-87
2022/04/04 03:58:42;;;;;;;6.93;4.67;;;3.40;99.90;;;;;;5025758;28;20254;-87
2022/04/04 04:01:09;;;;;;;8.07;4.93;;;3.40;99.90;;;;;;5006940;28;20270;-86
2022/04/04 04:03:36;;;;;;;6.70;4.67;;;3.40;99.90;;;;;;5008570;28;20219;-88
2022/04/04 04:06:12;;;;;;;6.93;4.70;;;3.40;99.90;;;;;;5008553;28;20247;-87
2022/04/04 04:08:44;;;;;;;6.13;4.23;;;3.40;99.90;;;;;;5013043;28;20660;-85
2022/04/04 04:11:13;;;;;;;8.80;5.10;;;3.50;99.90;;;;;;5025963;28;20224;-86
2022/04/04 04:13:45;;;;;;;10.33;4.47;;;3.50;99.90;;;;;;5024214;28;20355;-86
2022/04/04 04:16:14;;;;;;;7.50;4.70;;;3.50;99.90;;;;;;5023494;28;20192;-86
2022/04/04 04:18:42;;;;;;;7.93;4.40;;;3.50;99.90;;;;;;5005645;28;20263;-86
2022/04/04 04:21:11;;;;;;;9.47;4.60;;;3.50;99.90;;;;;;5012905;28;20212;-85
2022/04/04 04:23:42;;;;;;;10.30;5.03;;;3.50;99.90;;;;;;5013897;28;20306;-85
2022/04/04 04:26:12;;;;;;;6.83;4.97;;;3.60;99.90;;;;;;5001614;28;20901;-84
2022/04/04 04:28:41;;;;;;;5.67;4.63;;;3.60;99.90;;;;;;5012772;28;20211;-84
2022/04/04 04:31:08;;;;;;;10.47;4.90;;;3.60;99.90;;;;;;5022644;28;20216;-85
2022/04/04 04:33:35;;;;;;;7.57;4.63;;;3.60;99.90;;;;;;5004969;28;20207;-85
2022/04/04 04:36:02;;;;;;;4.77;4.27;;;3.60;99.90;;;;;;5007794;28;20216;-85
2022/04/04 04:38:30;;;;;;;7.03;4.73;;;3.60;99.90;;;;;;5006900;28;20224;-85
2022/04/04 04:40:57;;;;;;;6.17;4.30;;;3.70;99.90;;;;;;5025621;28;20228;-84
2022/04/04 04:43:24;;;;;;;8.33;4.57;;;3.80;99.90;;;;;;5010313;28;20298;-86
2022/04/04 04:45:51;;;;;;;7.63;4.97;;;3.70;99.90;;;;;;5027819;28;20248;-84
2022/04/04 04:48:18;;;;;;;9.93;5.47;;;3.80;99.90;;;;;;5011064;28;20531;-84
2022/04/04 04:50:47;;;;;;;6.37;4.93;;;3.80;99.90;;;;;;5023345;28;20278;-86
2022/04/04 04:53:15;;;;;;;8.90;5.27;;;3.80;99.90;;;;;;5029172;28;20204;-86
2022/04/04 04:55:43;;;;;;;7.93;4.87;;;3.80;99.90;;;;;;5025295;28;20320;-84
2022/04/04 04:58:10;;;;;;;8.97;5.50;;;3.80;99.90;;;;;;5019452;28;20308;-82
2022/04/04 05:00:37;;;;;;;9.50;4.83;;;3.80;99.90;;;;;;5023244;28;20225;-84
2022/04/04 05:05:50;;;;;;;5.83;4.67;;;3.80;99.90;;;;;;5028879;28;20239;-83
2022/04/04 05:08:18;;;;;;;7.17;5.20;;;3.90;99.90;;;;;;5010771;28;20218;-84
2022/04/04 05:10:46;;;;;;;6.90;5.07;;;4.00;99.90;;;;;;5010122;28;20272;-86
2022/04/04 05:13:13;;;;;;;9.17;5.07;;;4.00;99.90;;;;;;5010496;28;20356;-85
2022/04/04 05:15:41;;;;;;;7.33;5.70;;;4.00;99.90;;;;;;5010294;28;20211;-85
2022/04/04 05:18:08;;;;;;;7.10;5.03;;;4.00;99.90;;;;;;5008765;28;20204;-84
2022/04/04 05:20:35;;;;;;;9.73;5.23;;;4.00;99.90;;;;;;5009993;28;20222;-84
2022/04/04 05:23:02;;;;;;;9.67;5.43;;;4.10;99.90;;;;;;5009745;28;20208;-85
2022/04/04 05:25:29;;;;;;;11.00;6.33;;;4.00;99.90;;;;;;5012136;28;20619;-84
2022/04/04 05:27:56;;;;;;;10.57;5.30;;;4.00;99.90;;;;;;5011019;28;20230;-85
2022/04/04 05:30:24;;;;;;;9.73;6.13;;;4.00;99.90;;;;;;5021816;28;20316;-83
2022/04/04 05:32:51;;;;;;;7.63;5.60;;;4.00;99.90;;;;;;5019404;28;20277;-87
2022/04/04 05:35:19;;;;;;;7.07;5.50;;;4.10;99.90;;;;;;5030963;28;20216;-89
2022/04/04 05:37:46;;;;;;;7.23;5.67;;;4.10;99.90;;;;;;5017908;28;20198;-86
2022/04/04 05:40:14;;;;;;;10.03;5.87;;;4.10;99.90;;;;;;5035161;28;20216;-90
2022/04/04 05:42:41;;;;;;;8.30;5.47;;;4.10;99.90;;;;;;5023406;28;20211;-90
2022/04/04 05:45:09;;;;;;;7.37;5.73;;;4.10;99.90;;;;;;5034548;28;20201;-88
2022/04/04 05:47:36;;;;;;;7.80;4.93;;;4.10;99.90;;;;;;5015274;28;20207;-91
2022/04/04 05:50:04;;;;;;;10.23;5.87;;;4.10;99.90;;;;;;5011585;28;20280;-90
2022/04/04 05:52:31;;;;;;;10.20;5.63;;;4.20;99.90;;;;;;5029129;28;20269;-90
2022/04/04 05:54:59;;;;;;;8.40;5.57;;;4.20;99.90;;;;;;5009392;28;20204;-92
2022/04/04 05:57:32;;;;;;;8.97;6.53;;;4.10;99.90;;;;;;5023415;28;20207;-90
2022/04/04 05:59:59;;;;;;;8.97;6.37;;;4.20;99.90;;;;;;5019761;28;20788;-89
2022/04/04 06:02:28;;;;;;;10.90;6.63;;;4.20;99.90;;;;;;5015058;28;20254;-89
2022/04/04 06:04:58;;;;;;;8.27;6.03;;;4.30;99.90;;;;;;5017887;28;20206;-92
2022/04/04 06:07:25;;;;;;;8.73;6.00;;;4.30;99.90;;;;;;5037733;28;20237;-91
2022/04/04 06:09:53;;;;;;;17.43;6.33;;;4.40;99.90;;;;;;5024767;28;20198;-92
2022/04/04 06:12:26;;;;;;;10.20;5.73;;;4.30;99.90;;;;;;5025322;28;20269;-90
2022/04/04 06:14:53;;;;;;;9.90;5.73;;;4.40;99.90;;;;;;5017860;28;20264;-90
2022/04/04 06:17:20;;;;;;;9.07;6.47;;;4.40;99.90;;;;;;5014963;28;20328;-89
2022/04/04 06:19:47;;;;;;;8.87;5.77;;;4.40;99.90;;;;;;4994869;28;20209;-90
2022/04/04 06:22:14;;;;;;;8.37;6.17;;;4.40;99.90;;;;;;5012935;28;20210;-91
2022/04/04 06:24:41;;;;;;;8.07;6.20;;;4.50;99.90;;;;;;5029888;28;20676;-88
2022/04/04 06:27:09;;;;;;;11.20;5.97;;;4.60;99.90;;;;;;5032115;28;20215;-85
2022/04/04 06:29:36;;;;;;;9.37;5.50;;;4.60;99.90;;;;;;5007677;28;20258;-86
2022/04/04 06:32:03;;;;;;;10.67;6.17;;;4.70;99.90;;;;;;5007234;28;20246;-84
2022/04/04 06:34:30;;;;;;;9.40;5.77;;;4.70;99.90;;;;;;5006255;28;20208;-87
2022/04/04 06:36:57;;;;;;;7.97;5.70;;;4.70;99.90;;;;;;5006889;28;20250;-81
2022/04/04 06:39:24;;;;;;;8.60;5.70;;;4.80;99.90;;;;;;5025599;28;21192;-82
2022/04/04 06:41:51;;;;;;;6.57;5.53;;;4.80;99.90;;;;;;5009229;28;20295;-85
2022/04/04 06:44:18;;;;;;;7.00;4.37;;;4.90;99.90;;;;;;5025230;28;20232;-89
2022/04/04 06:46:50;;;;;;;6.47;5.00;;;4.90;99.90;;;;;;5009482;28;20291;-86
2022/04/04 06:49:17;;;;;;;8.70;5.23;;;4.90;99.90;;;;;;5010440;28;20655;-86
2022/04/04 06:51:45;;;;;;;7.97;5.37;;;5.00;99.90;;;;;;5026560;28;20235;-86
2022/04/04 06:54:12;;;;;;;9.83;5.20;;;5.10;99.90;;;;;;5008322;28;20201;-87
2022/04/04 06:56:39;;;;;;;8.00;5.63;;;5.10;99.90;;;;;;5029447;28;20630;-86
2022/04/04 06:59:05;;;;;;;8.23;5.50;;;5.20;99.90;;;;;;5028574;28;20254;-84
2022/04/04 07:01:32;;;;;;;9.10;5.63;;;5.20;99.90;;;;;;5025029;28;20274;-82
2022/04/04 07:03:59;;;;;;;6.90;5.20;;;5.30;99.90;;;;;;5000770;28;22357;-84
2022/04/04 07:06:26;;;;;;;8.20;5.27;;;5.40;99.90;;;;;;5015651;28;20253;-83
2022/04/04 07:08:53;;;;;;;6.53;4.90;;;5.40;99.90;;;;;;5005973;28;20216;-85
2022/04/04 07:11:22;;;;;;;9.10;5.47;;;5.40;99.90;;;;;;5022509;28;20616;-86
2022/04/04 07:13:49;;;;;;;6.73;4.43;;;5.50;99.90;;;;;;5028695;28;20201;-84
2022/04/04 07:16:18;;;;;;;15.27;5.40;;;5.50;99.90;;;;;;5012143;28;20269;-87
2022/04/04 07:18:45;;;;;;;6.80;4.87;;;5.50;99.90;;;;;;4992787;28;20223;-89
2022/04/04 07:21:11;;;;;;;9.60;4.73;;;5.50;99.90;;;;;;5012305;28;20215;-84
2022/04/04 07:23:38;;;;;;;9.00;5.07;;;5.50;99.90;;;;;;5028318;28;20960;-84
2022/04/04 07:26:07;;;;;;;8.37;5.80;;;5.50;99.90;;;;;;5030265;28;20246;-83
2022/04/04 07:28:34;;;;;;;8.27;5.47;;;5.50;99.90;;;;;;5029883;28;20220;-86
2022/04/04 07:31:06;;;;;;;7.03;4.90;;;5.60;99.90;;;;;;5012128;28;20260;-85
2022/04/04 07:33:33;;;;;;;8.13;5.57;;;5.50;99.90;;;;;;5013089;28;20261;-84
2022/04/04 07:36:00;;;;;;;8.50;5.57;;;5.50;99.90;;;;;;5012905;28;20229;-83
2022/04/04 07:38:26;;;;;;;8.90;5.37;;;5.60;99.90;;;;;;5011767;28;20265;-82
2022/04/04 07:40:55;;;;;;;9.47;6.17;;;5.60;99.90;;;;;;5009577;28;20246;-86
2022/04/04 07:43:22;;;;;;;8.37;6.30;;;5.60;99.90;;;;;;4997245;28;20204;-82
2022/04/04 07:45:50;;;;;;;9.43;5.83;;;5.70;99.90;;;;;;5020622;28;20480;-83
2022/04/04 07:48:18;;;;;;;10.33;5.87;;;5.80;99.90;;;;;;5015551;28;20207;-83
2022/04/04 07:50:45;;;;;;;8.97;5.47;;;5.80;99.90;;;;;;5010740;28;20241;-82
2022/04/04 07:53:13;;;;;;;7.83;5.40;;;5.90;99.90;;;;;;5031239;28;20618;-82
2022/04/04 07:55:40;;;;;;;8.47;5.27;;;6.00;99.90;;;;;;5033849;28;20219;-90
2022/04/04 07:58:07;;;;;;;9.40;5.97;;;6.00;99.90;;;;;;5013589;28;20243;-85
2022/04/04 08:00:34;;;;;;;7.90;6.00;;;6.10;99.90;;;;;;5018181;28;20239;-84
2022/04/04 08:03:02;;;;;;;7.30;5.17;;;6.20;99.90;;;;;;5030426;28;20266;-82
2022/04/04 08:05:30;;;;;;;9.03;6.07;;;6.20;99.90;;;;;;5024733;28;20280;-88
2022/04/04 08:07:57;;;;;;;8.10;5.97;;;6.30;99.90;;;;;;5009798;28;20208;-84
2022/04/04 08:10:25;;;;;;;6.40;4.87;;;6.30;99.90;;;;;;5007397;28;20374;-83
2022/04/04 08:12:54;;;;;;;12.10;5.60;;;6.30;99.90;;;;;;4989540;28;20266;-86
2022/04/04 08:15:21;;;;;;;9.87;6.50;;;6.40;99.90;;;;;;5010511;28;20286;-83
2022/04/04 08:17:55;;;;;;;10.13;5.53;;;6.40;99.90;;;;;;5009958;28;20216;-86
2022/04/04 08:20:22;;;;;;;10.50;6.40;;;6.40;99.90;;;;;;5008071;28;20252;-83
2022/04/04 08:22:51;;;;;;;9.20;5.73;;;6.50;99.90;;;;;;5014297;28;20205;-85
2022/04/04 08:25:18;;;;;;;8.27;6.03;;;6.50;99.90;;;;;;5025949;28;20207;-84
2022/04/04 08:27:46;;;;;;;8.60;4.83;;;6.60;99.90;;;;;;5013778;28;20205;-86
2022/04/04 08:30:16;;;;;;;10.13;5.50;;;6.50;99.90;;;;;;5011037;28;20279;-84
2022/04/04 08:32:45;;;;;;;7.17;5.50;;;6.60;99.90;;;;;;5008297;28;20933;-83
2022/04/04 08:35:14;;;;;;;9.80;5.53;;;6.60;99.90;;;;;;5028462;28;20204;-85
2022/04/04 08:37:43;;;;;;;7.77;5.87;;;6.70;99.90;;;;;;5024521;28;20727;-87
2022/04/04 08:40:12;;;;;;;8.47;5.53;;;6.70;99.90;;;;;;5007930;28;20690;-85
2022/04/04 08:42:41;;;;;;;12.27;6.40;;;6.60;99.90;;;;;;5027018;28;20205;-83
2022/04/04 08:45:09;;;;;;;9.80;5.17;;;6.70;99.90;;;;;;5030831;28;20255;-82
2022/04/04 08:47:39;;;;;;;8.67;5.73;;;6.60;99.90;;;;;;5008924;28;20214;-85
2022/04/04 08:50:07;;;;;;;7.50;5.63;;;6.60;99.90;;;;;;5012218;28;20238;-84
2022/04/04 08:52:34;;;;;;;9.60;5.37;;;6.60;99.90;;;;;;5007893;28;20952;-83
2022/04/04 08:55:00;;;;;;;7.50;5.97;;;6.60;99.90;;;;;;5029999;28;20245;-86
2022/04/04 08:57:27;;;;;;;9.33;6.10;;;6.70;99.90;;;;;;5017597;28;20357;-83
2022/04/04 08:59:55;;;;;;;7.77;4.80;;;6.70;99.90;;;;;;5027347;28;20203;-84
2022/04/04 09:02:22;;;;;;;8.07;6.17;;;6.60;99.90;;;;;;5013504;28;20340;-83
2022/04/04 09:04:52;;;;;;;8.70;5.43;;;6.60;99.90;;;;;;5016841;28;20194;-84
2022/04/04 09:07:21;;;;;;;10.07;6.53;;;6.60;99.90;;;;;;5010228;28;20234;-85
2022/04/04 09:09:52;;;;;;;11.53;5.97;;;6.60;99.90;;;;;;5010902;28;20286;-86
2022/04/04 09:12:26;;;;;;;8.57;5.50;;;6.60;99.90;;;;;;5025935;28;20216;-83
2022/04/04 09:14:54;;;;;;;9.47;6.10;;;6.70;99.90;;;;;;5001421;28;20312;-84
2022/04/04 09:17:30;;;;;;;11.30;6.80;;;6.70;99.90;;;;;;5019869;28;20639;-83
2022/04/04 09:19:58;;;;;;;7.67;6.00;;;6.70;99.90;;;;;;5000429;28;20202;-83
2022/04/04 09:22:27;;;;;;;8.83;6.93;;;6.60;99.90;;;;;;5006250;28;20240;-83
2022/04/04 09:25:02;;;;;;;12.77;6.03;;;6.50;99.90;;;;;;5004294;28;20266;-84
2022/04/04 09:27:34;;;;;;;7.53;5.90;;;6.50;99.90;;;;;;5004002;28;20322;-84
2022/04/04 09:30:07;;;;;;;9.23;6.70;;;6.50;99.90;;;;;;5026877;28;20205;-84
2022/04/04 09:32:39;;;;;;;8.77;6.80;;;6.40;99.90;;;;;;5010397;28;20287;-83
2022/04/04 09:35:13;;;;;;;13.30;6.50;;;6.30;99.90;;;;;;5029708;28;20231;-80
2022/04/04 09:37:43;;;;;;;11.67;7.13;;;6.20;99.90;;;;;;5029169;28;20232;-81
2022/04/04 09:40:16;;;;;;;11.07;6.73;;;6.20;99.90;;;;;;5012582;28;20211;-82
2022/04/04 09:42:52;;;;;;;9.10;6.97;;;6.20;99.90;;;;;;5027305;28;20218;-81
2022/04/04 09:45:28;;;;;;;9.33;6.43;;;6.20;99.90;;;;;;5012364;28;20201;-81
2022/04/04 09:47:58;;;;;;;13.97;7.13;;;6.20;99.90;;;;;;5010795;28;20228;-80
2022/04/04 09:50:50;;;;;;;10.20;6.80;;;6.20;99.90;;;;;;5006129;28;20211;-81
2022/04/04 09:53:23;;;;;;;9.97;7.40;;;6.10;99.90;;;;;;5030003;28;20736;-81
2022/04/04 09:56:00;;;;;;;10.17;7.43;;;6.20;99.90;;;;;;5013214;28;20562;-81
2022/04/04 09:58:31;;;;;;;7.10;6.30;;;6.20;99.90;;;;;;5025445;28;20204;-81
2022/04/04 10:01:00;;;;;;;10.20;6.53;;;6.10;99.90;;;;;;5024103;28;20228;-82
2022/04/04 10:03:31;;;;;;;8.23;6.73;;;6.10;99.90;;;;;;5028395;28;20200;-83
2022/04/04 10:06:09;;;;;;;12.37;6.77;;;6.10;99.90;;;;;;5005385;28;20197;-84
2022/04/04 10:08:38;;;;;;;8.17;7.10;;;6.10;99.90;;;;;;5028689;28;20221;-83
2022/04/04 10:11:09;;;;;;;11.40;7.13;;;6.20;99.90;;;;;;5010118;28;20202;-83
2022/04/04 10:13:36;;;;;;;12.03;6.90;;;6.20;99.90;;;;;;5012843;28;20654;-84
2022/04/04 10:16:04;;;;;;;8.67;6.53;;;6.20;99.90;;;;;;5010120;28;20197;-81
2022/04/04 10:18:33;;;;;;;8.87;6.93;;;6.20;99.90;;;;;;5024742;28;20256;-81
2022/04/04 10:21:00;;;;;;;7.17;6.47;;;6.20;99.90;;;;;;5009668;28;21490;-82
2022/04/04 10:23:28;;;;;;;10.03;6.67;;;6.20;99.90;;;;;;5018773;28;20199;-80
2022/04/04 10:25:58;;;;;;;14.13;7.10;;;6.20;99.90;;;;;;5027457;28;20214;-84
2022/04/04 10:28:30;;;;;;;9.37;7.03;;;6.20;99.90;;;;;;5024827;28;20205;-84
2022/04/04 10:30:59;;;;;;;7.97;6.13;;;6.10;99.90;;;;;;5027688;28;20668;-82
2022/04/04 10:33:32;;;;;;;10.87;7.87;;;6.10;99.90;;;;;;5013617;28;20208;-79
2022/04/04 10:36:15;;;;;;;9.97;7.40;;;6.10;99.90;;;;;;5009415;28;20263;-81
2022/04/04 10:38:45;;;;;;;10.03;7.07;;;6.10;99.90;;;;;;5005274;28;20242;-82
2022/04/04 10:41:18;;;;;;;12.93;7.40;;;6.10;99.90;;;;;;5027101;28;20588;-82
2022/04/04 10:43:48;;;;;;;12.43;7.70;;;6.10;99.90;;;;;;5028748;28;20210;-80
2022/04/04 10:46:17;;;;;;;11.80;7.83;;;6.10;99.90;;;;;;5012527;28;20201;-83
2022/04/04 10:48:49;;;;;;;13.30;7.33;;;6.10;99.90;;;;;;5027364;28;20648;-84
2022/04/04 10:51:36;;;;;;;9.17;6.87;;;6.10;99.90;;;;;;5011444;28;20228;-83
2022/04/04 10:54:05;;;;;;;9.03;6.73;;;6.10;99.90;;;;;;5014444;28;20232;-81
2022/04/04 10:56:39;;;;;;;9.77;6.03;;;6.10;99.90;;;;;;5028011;28;20229;-83
2022/04/04 10:59:15;;;;;;;9.50;6.53;;;6.00;99.90;;;;;;5004299;28;20219;-81
2022/04/04 11:01:46;;;;;;;10.63;6.93;;;6.00;99.90;;;;;;5028585;28;20244;-82
2022/04/04 11:04:26;;;;;;;9.13;6.80;;;6.00;99.90;;;;;;5024422;28;20209;-83
2022/04/04 11:09:55;;;;;;;7.23;6.43;;;6.10;99.90;;;;;;5025323;28;20233;-80
2022/04/04 11:12:25;;;;;;;11.07;6.40;;;6.10;99.90;;;;;;5027008;28;20290;-83
2022/04/04 11:15:07;;;;;;;8.07;6.87;;;6.10;99.90;;;;;;5007797;28;20224;-82
2022/04/04 11:17:56;;;;;;;8.83;7.90;;;6.10;99.90;;;;;;5008211;28;20271;-85
2022/04/04 11:20:31;;;;;;;12.57;6.97;;;6.10;99.90;;;;;;5009636;28;20246;-84
2022/04/04 11:23:01;;;;;;;9.67;7.30;;;6.10;99.90;;;;;;5011050;28;20223;-82
2022/04/04 11:25:34;;;;;;;8.47;6.53;;;6.10;99.90;;;;;;5007988;28;20240;-83
2022/04/04 11:28:05;;;;;;;8.63;6.93;;;6.10;99.90;;;;;;5027679;28;20202;-86
2022/04/04 11:30:33;;;;;;;8.53;7.00;;;6.20;99.90;;;;;;5024379;28;20210;-87
2022/04/04 11:33:00;;;;;;;7.53;6.00;;;6.20;99.90;;;;;;5008448;28;20227;-82
2022/04/04 11:35:31;;;;;;;7.90;7.03;;;6.20;99.90;;;;;;5008686;28;20483;-82
2022/04/04 11:38:12;;;;;;;5.73;5.13;;;6.20;99.90;;;;;;5026836;28;20207;-85
2022/04/04 11:40:49;;;;;;;11.70;7.00;;;6.20;99.90;;;;;;5007054;28;20635;-82
2022/04/04 11:43:17;;;;;;;7.17;6.27;;;6.20;99.90;;;;;;5006204;28;20665;-82
2022/04/04 11:45:46;;;;;;;11.07;7.50;;;6.20;99.90;;;;;;5003782;28;20214;-84
2022/04/04 11:48:23;;;;;;;7.67;6.67;;;6.20;99.90;;;;;;5004907;28;20205;-82
2022/04/04 11:50:56;;;;;;;7.47;6.63;;;6.20;99.90;;;;;;5003640;28;20205;-84
2022/04/04 11:53:27;;;;;;;8.93;6.53;;;6.20;99.90;;;;;;5004084;28;20205;-85
2022/04/04 11:56:00;;;;;;;7.83;6.47;;;6.10;99.90;;;;;;5004766;28;20252;-88
2022/04/04 11:58:27;;;;;;;7.80;6.47;;;6.10;99.90;;;;;;5022813;28;20204;-82
2022/04/04 12:01:04;;;;;;;8.07;6.50;;;6.10;99.90;;;;;;5018853;28;20301;-82
2022/04/04 12:03:39;;;;;;;7.63;6.83;;;6.10;99.90;;;;;;5015986;28;20236;-83
2022/04/04 12:06:07;;;;;;;9.57;6.73;;;6.10;99.90;;;;;;5019839;28;20204;-81
2022/04/04 12:08:35;;;;;;;6.83;6.13;;;6.10;99.90;;;;;;5002839;28;20644;-81
2022/04/04 12:11:05;;;;;;;8.53;7.20;;;6.00;99.90;;;;;;5017020;28;20235;-83
2022/04/04 12:13:32;;;;;;;8.57;7.23;;;6.10;99.90;;;;;;4988379;28;20222;-86
2022/04/04 12:15:59;;;;;;;7.50;6.80;;;6.10;99.90;;;;;;4987479;28;20204;-81
2022/04/04 12:18:29;;;;;;;7.33;5.97;;;6.00;99.90;;;;;;4999806;28;20280;-80
2022/04/04 12:21:01;;;;;;;11.07;6.73;;;6.00;99.90;;;;;;5014107;28;20231;-83
2022/04/04 12:26:34;;;;;;;7.93;7.00;;;6.00;99.90;;;;;;4989718;28;20224;-82
2022/04/04 12:29:03;;;;;;;8.00;7.10;;;6.00;99.90;;;;;;5023094;28;20215;-82
2022/04/04 12:31:32;;;;;;;9.67;6.83;;;6.00;99.90;;;;;;5001394;28;20250;-85
2022/04/04 12:34:08;;;;;;;6.73;6.03;;;6.00;99.90;;;;;;5004270;28;20404;-82
2022/04/04 12:36:43;;;;;;;8.67;6.87;;;6.00;99.90;;;;;;5001921;28;20323;-82
2022/04/04 12:39:18;;;;;;;9.20;6.93;;;6.00;99.90;;;;;;5019134;28;20195;-88
2022/04/04 12:41:46;;;;;;;9.10;6.80;;;6.10;99.90;;;;;;5012491;28;21468;-92
2022/04/04 12:44:19;;;;;;;9.57;6.60;;;6.10;99.90;;;;;;5022475;28;20196;-83
2022/04/04 12:46:47;;;;;;;8.63;6.60;;;6.10;99.90;;;;;;4998566;28;20202;-83
2022/04/04 12:49:22;;;;;;;7.47;6.30;;;6.10;99.90;;;;;;5021459;28;20203;-82
2022/04/04 12:51:58;;;;;;;8.00;6.97;;;6.10;99.90;;;;;;5003855;28;20225;-82
2022/04/04 12:54:25;;;;;;;7.03;6.03;;;6.10;99.90;;;;;;5005063;28;20292;-84
2022/04/04 12:56:52;;;;;;;6.73;6.03;;;6.10;99.90;;;;;;5015734;28;20245;-83
2022/04/04 12:59:20;;;;;;;6.37;5.77;;;6.20;99.90;;;;;;5007953;28;20305;-83
2022/04/04 13:02:06;;;;;;;6.97;6.03;;;6.20;99.90;;;;;;5024216;28;20256;-81
2022/04/04 13:04:34;;;;;;;7.37;6.13;;;6.20;99.90;;;;;;5026501;28;20230;-82
2022/04/04 13:07:15;;;;;;;7.53;5.67;;;6.30;99.90;;;;;;5027214;28;20282;-82
2022/04/04 13:09:50;;;;;;;6.07;5.30;;;6.30;99.90;;;;;;5025788;28;20223;-81
2022/04/04 13:12:28;;;;;;;7.03;5.97;;;6.30;99.90;;;;;;5026156;28;20247;-82
2022/04/04 13:14:56;;;;;;;9.10;5.53;;;6.30;99.90;;;;;;5009234;28;20210;-82